Terminal Aerodrome Forecast
Issued by NWS

Home | Current Version | Previous Version | Text Only | Print | Product List | Glossary On
Versions: 1 2 3 4 5 6 7 8 9 10 11 12 13 14 15
000
FTUS43 KEAX 260500
TAFSTJ
TAF
KSTJ 260520Z 2606/2706 17012KT P6SM OVC070
     FM260800 20011KT P6SM -RASN OVC035
     FM261200 29012KT P6SM OVC025
     FM261600 32020G30KT P6SM OVC025
     FM270000 33012KT P6SM OVC050=

USA.gov is the U.S. government's official web portal to all federal, state and local government web resources and services.